sensor_id;sensor_type;location;lat;lon;timestamp;P1;durP1;ratioP1;P2;durP2;ratioP2
25982;SDS011;13773;48.868;10.730;2024-03-08T00:01:41;24.67;;;14.63;;
25982;SDS011;13773;48.868;10.730;2024-03-08T00:04:06;27.47;;;15.47;;
25982;SDS011;13773;48.868;10.730;2024-03-08T00:06:33;27.00;;;14.37;;
25982;SDS011;13773;48.868;10.730;2024-03-08T00:08:59;22.93;;;14.23;;
25982;SDS011;13773;48.868;10.730;2024-03-08T00:11:25;24.17;;;14.47;;
25982;SDS011;13773;48.868;10.730;2024-03-08T00:13:51;26.07;;;15.27;;
25982;SDS011;13773;48.868;10.730;2024-03-08T00:16:18;26.57;;;15.23;;
25982;SDS011;13773;48.868;10.730;2024-03-08T00:18:48;26.13;;;14.17;;
25982;SDS011;13773;48.868;10.730;2024-03-08T00:21:14;26.13;;;14.23;;
25982;SDS011;13773;48.868;10.730;2024-03-08T00:23:40;27.53;;;15.47;;
25982;SDS011;13773;48.868;10.730;2024-03-08T00:26:06;27.20;;;15.47;;
25982;SDS011;13773;48.868;10.730;2024-03-08T00:28:32;23.60;;;13.97;;
25982;SDS011;13773;48.868;10.730;2024-03-08T00:30:59;25.97;;;14.63;;
25982;SDS011;13773;48.868;10.730;2024-03-08T00:33:25;24.07;;;14.00;;
25982;SDS011;13773;48.868;10.730;2024-03-08T00:35:52;27.03;;;14.30;;
25982;SDS011;13773;48.868;10.730;2024-03-08T00:38:18;24.43;;;14.37;;
25982;SDS011;13773;48.868;10.730;2024-03-08T00:40:44;24.70;;;14.40;;
25982;SDS011;13773;48.868;10.730;2024-03-08T00:43:10;27.67;;;14.93;;
25982;SDS011;13773;48.868;10.730;2024-03-08T00:45:36;24.73;;;14.23;;
25982;SDS011;13773;48.868;10.730;2024-03-08T00:48:07;23.57;;;13.30;;
25982;SDS011;13773;48.868;10.730;2024-03-08T00:50:34;25.27;;;15.17;;
25982;SDS011;13773;48.868;10.730;2024-03-08T00:52:59;26.27;;;14.30;;
25982;SDS011;13773;48.868;10.730;2024-03-08T00:55:25;21.57;;;13.93;;
25982;SDS011;13773;48.868;10.730;2024-03-08T00:57:51;27.83;;;14.43;;
25982;SDS011;13773;48.868;10.730;2024-03-08T01:00:18;23.37;;;14.37;;
25982;SDS011;13773;48.868;10.730;2024-03-08T01:02:46;27.03;;;14.50;;
25982;SDS011;13773;48.868;10.730;2024-03-08T01:05:11;26.13;;;14.53;;
25982;SDS011;13773;48.868;10.730;2024-03-08T01:07:38;27.83;;;14.23;;
25982;SDS011;13773;48.868;10.730;2024-03-08T01:10:04;24.63;;;13.80;;
25982;SDS011;13773;48.868;10.730;2024-03-08T01:12:36;28.17;;;15.40;;
25982;SDS011;13773;48.868;10.730;2024-03-08T01:15:02;27.93;;;15.27;;
25982;SDS011;13773;48.868;10.730;2024-03-08T01:17:28;25.27;;;14.50;;
25982;SDS011;13773;48.868;10.730;2024-03-08T01:19:53;24.77;;;14.23;;
25982;SDS011;13773;48.868;10.730;2024-03-08T01:22:19;25.80;;;14.97;;
25982;SDS011;13773;48.868;10.730;2024-03-08T01:24:45;27.60;;;15.57;;
25982;SDS011;13773;48.868;10.730;2024-03-08T01:27:10;27.60;;;14.67;;
25982;SDS011;13773;48.868;10.730;2024-03-08T01:29:37;28.20;;;14.37;;
25982;SDS011;13773;48.868;10.730;2024-03-08T01:32:03;28.60;;;16.03;;
25982;SDS011;13773;48.868;10.730;2024-03-08T01:34:29;28.87;;;16.73;;
25982;SDS011;13773;48.868;10.730;2024-03-08T01:36:55;31.17;;;15.73;;
25982;SDS011;13773;48.868;10.730;2024-03-08T01:39:21;26.17;;;15.23;;
25982;SDS011;13773;48.868;10.730;2024-03-08T01:41:47;26.63;;;15.97;;
25982;SDS011;13773;48.868;10.730;2024-03-08T01:44:13;30.97;;;16.53;;
25982;SDS011;13773;48.868;10.730;2024-03-08T01:46:43;26.70;;;15.60;;
25982;SDS011;13773;48.868;10.730;2024-03-08T01:49:10;27.00;;;15.67;;
25982;SDS011;13773;48.868;10.730;2024-03-08T01:51:37;28.73;;;15.17;;
25982;SDS011;13773;48.868;10.730;2024-03-08T01:54:05;24.57;;;14.50;;
25982;SDS011;13773;48.868;10.730;2024-03-08T01:56:31;29.17;;;16.07;;
25982;SDS011;13773;48.868;10.730;2024-03-08T01:58:57;28.90;;;15.80;;
25982;SDS011;13773;48.868;10.730;2024-03-08T02:01:24;27.10;;;15.63;;
25982;SDS011;13773;48.868;10.730;2024-03-08T02:03:50;28.20;;;15.83;;
25982;SDS011;13773;48.868;10.730;2024-03-08T02:06:16;27.87;;;16.00;;
25982;SDS011;13773;48.868;10.730;2024-03-08T02:08:42;30.53;;;16.17;;
25982;SDS011;13773;48.868;10.730;2024-03-08T02:11:09;27.00;;;14.77;;
25982;SDS011;13773;48.868;10.730;2024-03-08T02:13:35;28.57;;;17.07;;
25982;SDS011;13773;48.868;10.730;2024-03-08T02:16:01;27.00;;;16.30;;
25982;SDS011;13773;48.868;10.730;2024-03-08T02:18:27;24.27;;;15.40;;
25982;SDS011;13773;48.868;10.730;2024-03-08T02:20:55;30.10;;;16.73;;
25982;SDS011;13773;48.868;10.730;2024-03-08T02:23:21;27.40;;;15.67;;
25982;SDS011;13773;48.868;10.730;2024-03-08T02:25:49;28.33;;;16.17;;
25982;SDS011;13773;48.868;10.730;2024-03-08T02:28:16;27.47;;;16.10;;
25982;SDS011;13773;48.868;10.730;2024-03-08T02:30:48;29.97;;;16.17;;
25982;SDS011;13773;48.868;10.730;2024-03-08T02:33:14;29.50;;;16.97;;
25982;SDS011;13773;48.868;10.730;2024-03-08T02:35:44;29.67;;;16.37;;
25982;SDS011;13773;48.868;10.730;2024-03-08T02:38:19;30.47;;;16.37;;
25982;SDS011;13773;48.868;10.730;2024-03-08T02:40:46;26.10;;;14.83;;
25982;SDS011;13773;48.868;10.730;2024-03-08T02:43:14;30.23;;;15.90;;
25982;SDS011;13773;48.868;10.730;2024-03-08T02:45:41;29.37;;;17.30;;
25982;SDS011;13773;48.868;10.730;2024-03-08T02:48:07;29.43;;;16.37;;
25982;SDS011;13773;48.868;10.730;2024-03-08T02:50:33;26.17;;;15.23;;
25982;SDS011;13773;48.868;10.730;2024-03-08T02:53:00;28.73;;;17.07;;
25982;SDS011;13773;48.868;10.730;2024-03-08T02:55:26;29.87;;;16.70;;
25982;SDS011;13773;48.868;10.730;2024-03-08T02:57:52;27.50;;;16.63;;
25982;SDS011;13773;48.868;10.730;2024-03-08T03:00:19;26.00;;;15.43;;
25982;SDS011;13773;48.868;10.730;2024-03-08T03:02:46;26.80;;;14.90;;
25982;SDS011;13773;48.868;10.730;2024-03-08T03:05:12;29.13;;;16.37;;
25982;SDS011;13773;48.868;10.730;2024-03-08T03:07:39;28.43;;;16.70;;
25982;SDS011;13773;48.868;10.730;2024-03-08T03:10:04;27.93;;;16.50;;
25982;SDS011;13773;48.868;10.730;2024-03-08T03:12:32;29.40;;;16.60;;
25982;SDS011;13773;48.868;10.730;2024-03-08T03:14:58;29.80;;;16.97;;
25982;SDS011;13773;48.868;10.730;2024-03-08T03:17:25;28.37;;;16.07;;
25982;SDS011;13773;48.868;10.730;2024-03-08T03:19:51;28.23;;;16.10;;
25982;SDS011;13773;48.868;10.730;2024-03-08T03:22:17;27.13;;;16.63;;
25982;SDS011;13773;48.868;10.730;2024-03-08T03:24:44;28.07;;;15.27;;
25982;SDS011;13773;48.868;10.730;2024-03-08T03:27:11;29.57;;;16.07;;
25982;SDS011;13773;48.868;10.730;2024-03-08T03:29:41;31.23;;;16.47;;
25982;SDS011;13773;48.868;10.730;2024-03-08T03:32:10;26.43;;;16.27;;
25982;SDS011;13773;48.868;10.730;2024-03-08T03:34:37;30.10;;;17.23;;
25982;SDS011;13773;48.868;10.730;2024-03-08T03:37:03;29.80;;;15.93;;
25982;SDS011;13773;48.868;10.730;2024-03-08T03:39:29;28.43;;;16.27;;
25982;SDS011;13773;48.868;10.730;2024-03-08T03:41:59;25.03;;;15.00;;
25982;SDS011;13773;48.868;10.730;2024-03-08T03:44:27;28.43;;;16.30;;
25982;SDS011;13773;48.868;10.730;2024-03-08T03:46:53;27.67;;;15.53;;
25982;SDS011;13773;48.868;10.730;2024-03-08T03:49:19;26.50;;;14.87;;
25982;SDS011;13773;48.868;10.730;2024-03-08T03:51:44;29.43;;;16.80;;
25982;SDS011;13773;48.868;10.730;2024-03-08T03:54:10;29.83;;;16.23;;
25982;SDS011;13773;48.868;10.730;2024-03-08T03:56:37;30.00;;;17.03;;
25982;SDS011;13773;48.868;10.730;2024-03-08T03:59:03;26.00;;;15.83;;
25982;SDS011;13773;48.868;10.730;2024-03-08T04:01:29;30.73;;;16.63;;
25982;SDS011;13773;48.868;10.730;2024-03-08T04:03:54;27.13;;;16.30;;
25982;SDS011;13773;48.868;10.730;2024-03-08T04:06:20;31.03;;;16.03;;
25982;SDS011;13773;48.868;10.730;2024-03-08T04:08:47;29.07;;;16.20;;
25982;SDS011;13773;48.868;10.730;2024-03-08T04:11:13;29.80;;;16.87;;
25982;SDS011;13773;48.868;10.730;2024-03-08T04:13:41;29.00;;;16.93;;
25982;SDS011;13773;48.868;10.730;2024-03-08T04:16:07;30.20;;;16.73;;
25982;SDS011;13773;48.868;10.730;2024-03-08T04:18:33;32.30;;;17.43;;
25982;SDS011;13773;48.868;10.730;2024-03-08T04:21:00;26.53;;;16.23;;
25982;SDS011;13773;48.868;10.730;2024-03-08T04:23:31;27.83;;;16.13;;
25982;SDS011;13773;48.868;10.730;2024-03-08T04:26:00;23.43;;;12.23;;
25982;SDS011;13773;48.868;10.730;2024-03-08T04:28:27;29.00;;;17.07;;
25982;SDS011;13773;48.868;10.730;2024-03-08T04:30:52;27.20;;;16.43;;
25982;SDS011;13773;48.868;10.730;2024-03-08T04:33:18;28.33;;;16.83;;
25982;SDS011;13773;48.868;10.730;2024-03-08T04:35:43;28.37;;;16.47;;
25982;SDS011;13773;48.868;10.730;2024-03-08T04:38:11;27.70;;;15.07;;
25982;SDS011;13773;48.868;10.730;2024-03-08T04:40:36;30.77;;;16.00;;
25982;SDS011;13773;48.868;10.730;2024-03-08T04:43:02;35.03;;;16.47;;
25982;SDS011;13773;48.868;10.730;2024-03-08T04:45:28;30.33;;;16.67;;
25982;SDS011;13773;48.868;10.730;2024-03-08T04:47:53;28.23;;;15.77;;
25982;SDS011;13773;48.868;10.730;2024-03-08T04:50:19;30.10;;;17.23;;
25982;SDS011;13773;48.868;10.730;2024-03-08T04:52:45;31.60;;;17.10;;
25982;SDS011;13773;48.868;10.730;2024-03-08T04:55:11;28.73;;;16.63;;
25982;SDS011;13773;48.868;10.730;2024-03-08T04:57:37;27.63;;;16.83;;
25982;SDS011;13773;48.868;10.730;2024-03-08T05:00:03;34.33;;;17.17;;
25982;SDS011;13773;48.868;10.730;2024-03-08T05:02:35;32.27;;;17.73;;
25982;SDS011;13773;48.868;10.730;2024-03-08T05:05:01;31.70;;;17.07;;
25982;SDS011;13773;48.868;10.730;2024-03-08T05:07:27;31.70;;;17.43;;
25982;SDS011;13773;48.868;10.730;2024-03-08T05:09:53;33.33;;;18.50;;
25982;SDS011;13773;48.868;10.730;2024-03-08T05:12:18;24.67;;;16.00;;
25982;SDS011;13773;48.868;10.730;2024-03-08T05:14:47;31.73;;;18.17;;
25982;SDS011;13773;48.868;10.730;2024-03-08T05:17:15;31.40;;;17.20;;
25982;SDS011;13773;48.868;10.730;2024-03-08T05:19:41;35.47;;;17.27;;
25982;SDS011;13773;48.868;10.730;2024-03-08T05:22:07;34.23;;;18.80;;
25982;SDS011;13773;48.868;10.730;2024-03-08T05:24:33;33.47;;;18.73;;
25982;SDS011;13773;48.868;10.730;2024-03-08T05:26:59;34.27;;;18.03;;
25982;SDS011;13773;48.868;10.730;2024-03-08T05:29:25;35.63;;;21.03;;
25982;SDS011;13773;48.868;10.730;2024-03-08T05:31:51;34.80;;;20.53;;
25982;SDS011;13773;48.868;10.730;2024-03-08T05:34:17;36.37;;;20.67;;
25982;SDS011;13773;48.868;10.730;2024-03-08T05:36:44;36.00;;;21.17;;
25982;SDS011;13773;48.868;10.730;2024-03-08T05:39:15;34.10;;;21.30;;
25982;SDS011;13773;48.868;10.730;2024-03-08T05:41:41;35.07;;;20.57;;
25982;SDS011;13773;48.868;10.730;2024-03-08T05:44:07;37.73;;;21.73;;
25982;SDS011;13773;48.868;10.730;2024-03-08T05:46:34;34.33;;;19.33;;
25982;SDS011;13773;48.868;10.730;2024-03-08T05:49:06;31.67;;;18.97;;
25982;SDS011;13773;48.868;10.730;2024-03-08T05:51:32;31.67;;;19.67;;
25982;SDS011;13773;48.868;10.730;2024-03-08T05:54:01;34.37;;;18.30;;
25982;SDS011;13773;48.868;10.730;2024-03-08T05:56:28;35.63;;;19.67;;
25982;SDS011;13773;48.868;10.730;2024-03-08T05:58:57;35.30;;;19.40;;
25982;SDS011;13773;48.868;10.730;2024-03-08T06:01:26;35.53;;;20.30;;
25982;SDS011;13773;48.868;10.730;2024-03-08T06:03:55;34.10;;;20.00;;
25982;SDS011;13773;48.868;10.730;2024-03-08T06:06:25;32.27;;;18.87;;
25982;SDS011;13773;48.868;10.730;2024-03-08T06:08:51;37.47;;;20.93;;
25982;SDS011;13773;48.868;10.730;2024-03-08T06:11:18;35.40;;;19.63;;
25982;SDS011;13773;48.868;10.730;2024-03-08T06:13:45;30.73;;;18.53;;
25982;SDS011;13773;48.868;10.730;2024-03-08T06:16:12;33.40;;;18.27;;
25982;SDS011;13773;48.868;10.730;2024-03-08T06:18:37;30.73;;;18.67;;
25982;SDS011;13773;48.868;10.730;2024-03-08T06:21:04;34.07;;;19.17;;
25982;SDS011;13773;48.868;10.730;2024-03-08T06:23:34;36.13;;;20.80;;
25982;SDS011;13773;48.868;10.730;2024-03-08T06:26:06;33.97;;;19.50;;
25982;SDS011;13773;48.868;10.730;2024-03-08T06:28:32;34.10;;;19.83;;
25982;SDS011;13773;48.868;10.730;2024-03-08T06:30:59;36.23;;;20.07;;
25982;SDS011;13773;48.868;10.730;2024-03-08T06:33:25;32.90;;;18.83;;
25982;SDS011;13773;48.868;10.730;2024-03-08T06:35:54;39.60;;;19.93;;
25982;SDS011;13773;48.868;10.730;2024-03-08T06:38:25;38.57;;;19.13;;
25982;SDS011;13773;48.868;10.730;2024-03-08T06:40:54;34.90;;;20.00;;
25982;SDS011;13773;48.868;10.730;2024-03-08T06:43:21;31.90;;;18.47;;
25982;SDS011;13773;48.868;10.730;2024-03-08T06:45:47;37.23;;;20.80;;
25982;SDS011;13773;48.868;10.730;2024-03-08T06:48:17;37.67;;;19.77;;
25982;SDS011;13773;48.868;10.730;2024-03-08T06:50:43;32.10;;;18.90;;
25982;SDS011;13773;48.868;10.730;2024-03-08T06:53:11;35.07;;;20.57;;
25982;SDS011;13773;48.868;10.730;2024-03-08T06:55:38;36.97;;;20.07;;
25982;SDS011;13773;48.868;10.730;2024-03-08T06:58:04;37.17;;;19.73;;
25982;SDS011;13773;48.868;10.730;2024-03-08T07:00:31;34.10;;;20.97;;
25982;SDS011;13773;48.868;10.730;2024-03-08T07:02:57;36.90;;;21.13;;
25982;SDS011;13773;48.868;10.730;2024-03-08T07:05:26;36.83;;;19.93;;
25982;SDS011;13773;48.868;10.730;2024-03-08T07:07:52;38.90;;;19.83;;
25982;SDS011;13773;48.868;10.730;2024-03-08T07:10:19;32.53;;;18.73;;
25982;SDS011;13773;48.868;10.730;2024-03-08T07:12:46;34.53;;;20.03;;
25982;SDS011;13773;48.868;10.730;2024-03-08T07:15:11;37.43;;;19.57;;
25982;SDS011;13773;48.868;10.730;2024-03-08T07:17:41;32.53;;;19.13;;
25982;SDS011;13773;48.868;10.730;2024-03-08T07:20:09;35.40;;;20.97;;
25982;SDS011;13773;48.868;10.730;2024-03-08T07:22:37;33.83;;;20.23;;
25982;SDS011;13773;48.868;10.730;2024-03-08T07:25:05;34.43;;;20.77;;
25982;SDS011;13773;48.868;10.730;2024-03-08T07:27:52;33.87;;;19.57;;
25982;SDS011;13773;48.868;10.730;2024-03-08T07:30:25;38.53;;;21.27;;
25982;SDS011;13773;48.868;10.730;2024-03-08T07:33:10;39.33;;;19.50;;
25982;SDS011;13773;48.868;10.730;2024-03-08T07:35:39;34.60;;;20.17;;
25982;SDS011;13773;48.868;10.730;2024-03-08T07:38:06;36.77;;;20.70;;
25982;SDS011;13773;48.868;10.730;2024-03-08T07:40:36;39.70;;;21.10;;
25982;SDS011;13773;48.868;10.730;2024-03-08T07:43:11;34.37;;;19.13;;
25982;SDS011;13773;48.868;10.730;2024-03-08T07:45:37;36.60;;;19.83;;
25982;SDS011;13773;48.868;10.730;2024-03-08T07:48:03;33.47;;;19.90;;
25982;SDS011;13773;48.868;10.730;2024-03-08T07:50:34;33.07;;;19.73;;
25982;SDS011;13773;48.868;10.730;2024-03-08T07:53:04;37.03;;;21.17;;
25982;SDS011;13773;48.868;10.730;2024-03-08T07:55:31;34.13;;;20.17;;
25982;SDS011;13773;48.868;10.730;2024-03-08T07:57:57;38.33;;;19.50;;
25982;SDS011;13773;48.868;10.730;2024-03-08T08:00:23;35.07;;;19.27;;
25982;SDS011;13773;48.868;10.730;2024-03-08T08:02:49;36.27;;;20.60;;
25982;SDS011;13773;48.868;10.730;2024-03-08T08:05:15;37.53;;;21.20;;
25982;SDS011;13773;48.868;10.730;2024-03-08T08:07:46;32.87;;;19.50;;
25982;SDS011;13773;48.868;10.730;2024-03-08T08:10:12;32.23;;;20.37;;
25982;SDS011;13773;48.868;10.730;2024-03-08T08:12:48;41.57;;;20.93;;
25982;SDS011;13773;48.868;10.730;2024-03-08T08:15:14;38.87;;;20.60;;
25982;SDS011;13773;48.868;10.730;2024-03-08T08:17:48;35.40;;;20.63;;
25982;SDS011;13773;48.868;10.730;2024-03-08T08:20:14;36.07;;;20.43;;
25982;SDS011;13773;48.868;10.730;2024-03-08T08:22:40;36.83;;;19.77;;
25982;SDS011;13773;48.868;10.730;2024-03-08T08:25:06;37.30;;;20.60;;
25982;SDS011;13773;48.868;10.730;2024-03-08T08:27:33;34.17;;;20.40;;
25982;SDS011;13773;48.868;10.730;2024-03-08T08:29:58;37.63;;;21.63;;
25982;SDS011;13773;48.868;10.730;2024-03-08T08:32:25;35.23;;;20.40;;
25982;SDS011;13773;48.868;10.730;2024-03-08T08:34:51;36.73;;;20.07;;
25982;SDS011;13773;48.868;10.730;2024-03-08T08:37:17;32.70;;;19.40;;
25982;SDS011;13773;48.868;10.730;2024-03-08T08:39:42;31.83;;;19.77;;
25982;SDS011;13773;48.868;10.730;2024-03-08T08:42:08;33.27;;;18.53;;
25982;SDS011;13773;48.868;10.730;2024-03-08T08:44:34;33.80;;;20.00;;
25982;SDS011;13773;48.868;10.730;2024-03-08T08:47:00;36.20;;;20.30;;
25982;SDS011;13773;48.868;10.730;2024-03-08T08:49:28;33.97;;;19.33;;
25982;SDS011;13773;48.868;10.730;2024-03-08T08:51:55;34.80;;;20.17;;
25982;SDS011;13773;48.868;10.730;2024-03-08T08:54:23;37.43;;;22.67;;
25982;SDS011;13773;48.868;10.730;2024-03-08T08:56:50;37.20;;;21.90;;
25982;SDS011;13773;48.868;10.730;2024-03-08T08:59:16;39.43;;;21.53;;
25982;SDS011;13773;48.868;10.730;2024-03-08T09:01:44;36.50;;;21.20;;
25982;SDS011;13773;48.868;10.730;2024-03-08T09:04:13;35.40;;;21.20;;
25982;SDS011;13773;48.868;10.730;2024-03-08T09:06:39;34.43;;;20.93;;
25982;SDS011;13773;48.868;10.730;2024-03-08T09:09:08;35.13;;;20.47;;
25982;SDS011;13773;48.868;10.730;2024-03-08T09:11:35;34.03;;;19.83;;
25982;SDS011;13773;48.868;10.730;2024-03-08T09:14:06;34.67;;;19.60;;
25982;SDS011;13773;48.868;10.730;2024-03-08T09:16:32;34.13;;;19.67;;
25982;SDS011;13773;48.868;10.730;2024-03-08T09:18:58;34.47;;;21.10;;
25982;SDS011;13773;48.868;10.730;2024-03-08T09:21:23;34.87;;;19.97;;
25982;SDS011;13773;48.868;10.730;2024-03-08T09:23:49;35.00;;;20.90;;
25982;SDS011;13773;48.868;10.730;2024-03-08T09:26:15;35.77;;;19.63;;
25982;SDS011;13773;48.868;10.730;2024-03-08T09:28:41;36.27;;;20.57;;
25982;SDS011;13773;48.868;10.730;2024-03-08T09:31:07;33.53;;;19.47;;
25982;SDS011;13773;48.868;10.730;2024-03-08T09:33:33;31.97;;;19.53;;
25982;SDS011;13773;48.868;10.730;2024-03-08T09:35:58;38.33;;;20.57;;
25982;SDS011;13773;48.868;10.730;2024-03-08T09:38:24;32.47;;;19.07;;
25982;SDS011;13773;48.868;10.730;2024-03-08T09:40:50;30.27;;;18.60;;
25982;SDS011;13773;48.868;10.730;2024-03-08T09:43:16;37.30;;;21.43;;
25982;SDS011;13773;48.868;10.730;2024-03-08T09:45:43;34.03;;;18.90;;
25982;SDS011;13773;48.868;10.730;2024-03-08T09:48:14;31.80;;;19.97;;
25982;SDS011;13773;48.868;10.730;2024-03-08T09:50:44;36.47;;;20.33;;
25982;SDS011;13773;48.868;10.730;2024-03-08T09:53:11;29.50;;;17.87;;
25982;SDS011;13773;48.868;10.730;2024-03-08T09:55:37;33.40;;;20.30;;
25982;SDS011;13773;48.868;10.730;2024-03-08T09:58:07;35.33;;;20.23;;
25982;SDS011;13773;48.868;10.730;2024-03-08T10:00:53;30.77;;;19.47;;
25982;SDS011;13773;48.868;10.730;2024-03-08T10:03:22;30.33;;;19.17;;
25982;SDS011;13773;48.868;10.730;2024-03-08T10:05:48;32.80;;;19.30;;
25982;SDS011;13773;48.868;10.730;2024-03-08T10:08:14;31.97;;;20.23;;
25982;SDS011;13773;48.868;10.730;2024-03-08T10:10:39;30.87;;;19.07;;
25982;SDS011;13773;48.868;10.730;2024-03-08T10:13:08;32.90;;;18.73;;
25982;SDS011;13773;48.868;10.730;2024-03-08T10:15:39;30.40;;;18.93;;
25982;SDS011;13773;48.868;10.730;2024-03-08T10:18:05;33.60;;;19.43;;
25982;SDS011;13773;48.868;10.730;2024-03-08T10:20:31;34.13;;;19.40;;
25982;SDS011;13773;48.868;10.730;2024-03-08T10:23:01;29.33;;;18.37;;
25982;SDS011;13773;48.868;10.730;2024-03-08T10:25:28;32.43;;;19.27;;
25982;SDS011;13773;48.868;10.730;2024-03-08T10:27:57;32.97;;;19.30;;
25982;SDS011;13773;48.868;10.730;2024-03-08T10:30:23;32.70;;;19.50;;
25982;SDS011;13773;48.868;10.730;2024-03-08T10:32:48;32.07;;;19.77;;
25982;SDS011;13773;48.868;10.730;2024-03-08T10:35:15;34.00;;;20.60;;
25982;SDS011;13773;48.868;10.730;2024-03-08T10:37:46;33.70;;;19.93;;
25982;SDS011;13773;48.868;10.730;2024-03-08T10:40:16;32.20;;;20.03;;
25982;SDS011;13773;48.868;10.730;2024-03-08T10:43:04;30.90;;;20.43;;
25982;SDS011;13773;48.868;10.730;2024-03-08T10:50:53;31.50;;;21.57;;
25982;SDS011;13773;48.868;10.730;2024-03-08T10:53:19;31.27;;;19.23;;
25982;SDS011;13773;48.868;10.730;2024-03-08T10:55:47;30.10;;;18.33;;
25982;SDS011;13773;48.868;10.730;2024-03-08T10:58:18;30.80;;;19.13;;
25982;SDS011;13773;48.868;10.730;2024-03-08T11:00:46;32.10;;;19.43;;
25982;SDS011;13773;48.868;10.730;2024-03-08T11:06:08;31.20;;;18.50;;
25982;SDS011;13773;48.868;10.730;2024-03-08T11:08:48;31.07;;;18.33;;
25982;SDS011;13773;48.868;10.730;2024-03-08T11:11:25;28.03;;;17.67;;
25982;SDS011;13773;48.868;10.730;2024-03-08T11:13:58;24.50;;;16.47;;
25982;SDS011;13773;48.868;10.730;2024-03-08T11:18:54;28.43;;;17.90;;
25982;SDS011;13773;48.868;10.730;2024-03-08T11:21:29;27.37;;;17.37;;
25982;SDS011;13773;48.868;10.730;2024-03-08T11:23:59;28.47;;;17.50;;
25982;SDS011;13773;48.868;10.730;2024-03-08T11:26:32;26.20;;;16.70;;
25982;SDS011;13773;48.868;10.730;2024-03-08T11:32:03;29.00;;;17.13;;
25982;SDS011;13773;48.868;10.730;2024-03-08T11:34:36;24.80;;;15.33;;
25982;SDS011;13773;48.868;10.730;2024-03-08T11:37:05;25.70;;;15.87;;
25982;SDS011;13773;48.868;10.730;2024-03-08T11:39:37;22.43;;;14.93;;
25982;SDS011;13773;48.868;10.730;2024-03-08T11:42:05;24.47;;;16.13;;
25982;SDS011;13773;48.868;10.730;2024-03-08T11:44:31;24.53;;;16.23;;
25982;SDS011;13773;48.868;10.730;2024-03-08T11:46:57;26.20;;;16.77;;
25982;SDS011;13773;48.868;10.730;2024-03-08T11:49:23;24.93;;;15.70;;
25982;SDS011;13773;48.868;10.730;2024-03-08T11:51:52;25.03;;;15.93;;
25982;SDS011;13773;48.868;10.730;2024-03-08T11:54:21;21.97;;;15.67;;
25982;SDS011;13773;48.868;10.730;2024-03-08T11:56:47;24.63;;;14.97;;
25982;SDS011;13773;48.868;10.730;2024-03-08T11:59:16;22.40;;;15.20;;
25982;SDS011;13773;48.868;10.730;2024-03-08T12:01:42;24.40;;;15.93;;
25982;SDS011;13773;48.868;10.730;2024-03-08T12:04:11;25.33;;;15.13;;
25982;SDS011;13773;48.868;10.730;2024-03-08T12:06:40;22.00;;;15.30;;
25982;SDS011;13773;48.868;10.730;2024-03-08T12:09:12;20.73;;;14.47;;
25982;SDS011;13773;48.868;10.730;2024-03-08T12:11:39;20.00;;;13.37;;
25982;SDS011;13773;48.868;10.730;2024-03-08T12:14:06;20.93;;;14.17;;
25982;SDS011;13773;48.868;10.730;2024-03-08T12:16:32;21.27;;;13.43;;
25982;SDS011;13773;48.868;10.730;2024-03-08T12:18:58;22.27;;;14.33;;
25982;SDS011;13773;48.868;10.730;2024-03-08T12:21:26;20.70;;;13.90;;
25982;SDS011;13773;48.868;10.730;2024-03-08T12:26:30;20.43;;;13.53;;
25982;SDS011;13773;48.868;10.730;2024-03-08T12:29:14;19.37;;;13.07;;
25982;SDS011;13773;48.868;10.730;2024-03-08T12:31:58;16.37;;;11.33;;
25982;SDS011;13773;48.868;10.730;2024-03-08T12:34:26;18.40;;;12.13;;
25982;SDS011;13773;48.868;10.730;2024-03-08T12:36:57;17.83;;;12.07;;
25982;SDS011;13773;48.868;10.730;2024-03-08T12:39:23;18.60;;;13.13;;
25982;SDS011;13773;48.868;10.730;2024-03-08T12:41:54;17.60;;;12.17;;
25982;SDS011;13773;48.868;10.730;2024-03-08T12:44:22;18.37;;;12.10;;
25982;SDS011;13773;48.868;10.730;2024-03-08T12:46:48;17.13;;;11.80;;
25982;SDS011;13773;48.868;10.730;2024-03-08T12:49:14;16.07;;;11.77;;
25982;SDS011;13773;48.868;10.730;2024-03-08T12:51:44;19.10;;;12.37;;
25982;SDS011;13773;48.868;10.730;2024-03-08T12:54:10;19.70;;;11.47;;
25982;SDS011;13773;48.868;10.730;2024-03-08T12:56:36;18.23;;;12.13;;
25982;SDS011;13773;48.868;10.730;2024-03-08T12:59:02;17.37;;;11.97;;
25982;SDS011;13773;48.868;10.730;2024-03-08T13:01:33;16.83;;;12.20;;
25982;SDS011;13773;48.868;10.730;2024-03-08T13:04:02;16.50;;;11.30;;
25982;SDS011;13773;48.868;10.730;2024-03-08T13:06:31;16.27;;;10.57;;
25982;SDS011;13773;48.868;10.730;2024-03-08T13:08:57;16.33;;;11.07;;
25982;SDS011;13773;48.868;10.730;2024-03-08T13:11:23;16.90;;;11.50;;
25982;SDS011;13773;48.868;10.730;2024-03-08T13:13:49;19.27;;;11.87;;
25982;SDS011;13773;48.868;10.730;2024-03-08T13:16:15;15.73;;;10.80;;
25982;SDS011;13773;48.868;10.730;2024-03-08T13:18:42;13.33;;;10.20;;
25982;SDS011;13773;48.868;10.730;2024-03-08T13:21:09;15.43;;;10.30;;
25982;SDS011;13773;48.868;10.730;2024-03-08T13:23:36;16.50;;;10.60;;
25982;SDS011;13773;48.868;10.730;2024-03-08T13:26:08;14.90;;;10.63;;
25982;SDS011;13773;48.868;10.730;2024-03-08T13:28:43;14.97;;;10.60;;
25982;SDS011;13773;48.868;10.730;2024-03-08T13:31:14;14.90;;;10.27;;
25982;SDS011;13773;48.868;10.730;2024-03-08T13:33:40;12.50;;;10.20;;
25982;SDS011;13773;48.868;10.730;2024-03-08T13:36:07;13.43;;;9.67;;
25982;SDS011;13773;48.868;10.730;2024-03-08T13:38:44;13.73;;;9.53;;
25982;SDS011;13773;48.868;10.730;2024-03-08T13:41:12;11.50;;;8.60;;
25982;SDS011;13773;48.868;10.730;2024-03-08T13:43:42;12.67;;;8.93;;
25982;SDS011;13773;48.868;10.730;2024-03-08T13:46:12;12.57;;;8.83;;
25982;SDS011;13773;48.868;10.730;2024-03-08T13:48:37;12.80;;;8.50;;
25982;SDS011;13773;48.868;10.730;2024-03-08T13:51:06;12.10;;;8.53;;
25982;SDS011;13773;48.868;10.730;2024-03-08T13:53:35;12.53;;;8.77;;
25982;SDS011;13773;48.868;10.730;2024-03-08T13:56:04;14.07;;;9.40;;
25982;SDS011;13773;48.868;10.730;2024-03-08T13:58:30;12.23;;;8.70;;
25982;SDS011;13773;48.868;10.730;2024-03-08T14:00:56;12.50;;;9.07;;
25982;SDS011;13773;48.868;10.730;2024-03-08T14:03:22;12.87;;;8.90;;
25982;SDS011;13773;48.868;10.730;2024-03-08T14:05:49;13.47;;;8.77;;
25982;SDS011;13773;48.868;10.730;2024-03-08T14:08:15;10.60;;;8.13;;
25982;SDS011;13773;48.868;10.730;2024-03-08T14:10:42;11.20;;;7.97;;
25982;SDS011;13773;48.868;10.730;2024-03-08T14:13:08;11.63;;;8.10;;
25982;SDS011;13773;48.868;10.730;2024-03-08T14:15:34;12.33;;;9.20;;
25982;SDS011;13773;48.868;10.730;2024-03-08T14:18:00;11.57;;;8.13;;
25982;SDS011;13773;48.868;10.730;2024-03-08T14:20:26;10.87;;;7.97;;
25982;SDS011;13773;48.868;10.730;2024-03-08T14:22:55;12.13;;;8.63;;
25982;SDS011;13773;48.868;10.730;2024-03-08T14:25:21;12.87;;;8.80;;
25982;SDS011;13773;48.868;10.730;2024-03-08T14:27:50;12.13;;;7.80;;